createdAt,value
2023-05-04T00:01:20.700Z,24.70
2023-05-04T00:03:57.344Z,24.70
2023-05-04T00:06:28.985Z,24.60
2023-05-04T00:09:00.766Z,24.80
2023-05-04T00:11:31.816Z,24.90
2023-05-04T00:14:03.350Z,25.00
2023-05-04T00:16:34.947Z,25.20
2023-05-04T00:19:09.052Z,25.00
2023-05-04T00:21:40.366Z,24.80
2023-05-04T00:24:12.292Z,24.10
2023-05-04T00:26:43.744Z,23.80
2023-05-04T00:29:15.215Z,23.70
2023-05-04T00:31:47.050Z,23.90
2023-05-04T00:34:21.094Z,23.90
2023-05-04T00:36:52.197Z,23.80
2023-05-04T00:39:23.713Z,23.80
2023-05-04T00:41:56.564Z,23.80
2023-05-04T00:44:27.583Z,23.80
2023-05-04T00:47:00.097Z,23.50
2023-05-04T00:49:33.724Z,23.50
2023-05-04T00:52:06.437Z,23.60
2023-05-04T00:54:38.738Z,23.50
2023-05-04T00:57:10.312Z,23.40
2023-05-04T00:59:42.972Z,23.50
2023-05-04T01:02:14.629Z,23.30
2023-05-04T01:04:48.518Z,23.30
2023-05-04T01:07:25.816Z,23.40
2023-05-04T01:10:02.548Z,24.00
2023-05-04T01:12:41.617Z,24.30
2023-05-04T01:15:15.664Z,24.00
2023-05-04T01:17:47.236Z,24.30
2023-05-04T01:20:21.198Z,24.40
2023-05-04T01:22:54.713Z,24.80
2023-05-04T01:25:26.612Z,24.80
2023-05-04T01:28:03.413Z,24.80
2023-05-04T01:30:40.628Z,24.80
2023-05-04T01:33:12.445Z,25.00
2023-05-04T01:35:44.562Z,25.00
2023-05-04T01:38:19.301Z,24.90
2023-05-04T01:40:50.799Z,24.60
2023-05-04T01:43:22.288Z,24.00
2023-05-04T01:45:53.880Z,23.70
2023-05-04T01:48:26.106Z,23.30
2023-05-04T01:50:59.455Z,22.90
2023-05-04T01:53:33.205Z,22.30
2023-05-04T01:56:05.048Z,22.10
2023-05-04T01:58:36.660Z,22.00
2023-05-04T02:01:07.556Z,21.90
2023-05-04T02:03:39.171Z,21.70
2023-05-04T02:06:10.909Z,21.50
2023-05-04T02:08:44.025Z,21.20
2023-05-04T02:11:17.306Z,21.00
2023-05-04T02:13:48.764Z,20.90
2023-05-04T02:16:21.591Z,20.70
2023-05-04T02:18:53.842Z,20.70
2023-05-04T02:21:25.989Z,20.70
2023-05-04T02:24:00.335Z,20.60
2023-05-04T02:26:32.308Z,20.50
2023-05-04T02:29:04.304Z,20.40
2023-05-04T02:31:36.394Z,20.30
2023-05-04T02:34:08.040Z,20.20
2023-05-04T02:36:39.738Z,20.10
2023-05-04T02:39:13.740Z,20.00
2023-05-04T02:41:45.280Z,20.00
2023-05-04T02:44:17.346Z,19.90
2023-05-04T02:46:49.070Z,19.80
2023-05-04T02:49:21.589Z,19.70
2023-05-04T02:51:52.908Z,19.60
2023-05-04T02:54:26.935Z,19.50
2023-05-04T02:56:58.634Z,19.40
2023-05-04T02:59:30.054Z,19.40
2023-05-04T03:02:01.300Z,19.30
2023-05-04T03:04:32.761Z,19.20
2023-05-04T03:07:04.942Z,19.10
2023-05-04T03:09:38.818Z,19.00
2023-05-04T03:12:11.201Z,18.90
2023-05-04T03:14:42.893Z,18.80
2023-05-04T03:17:14.465Z,18.70
2023-05-04T03:19:46.643Z,18.60
2023-05-04T03:22:18.733Z,18.50
2023-05-04T03:24:53.157Z,18.30
2023-05-04T03:27:24.736Z,18.20
2023-05-04T03:29:56.293Z,18.10
2023-05-04T03:32:27.643Z,18.00
2023-05-04T03:34:59.553Z,18.00
2023-05-04T03:37:31.167Z,18.00
2023-05-04T03:40:05.392Z,17.90
2023-05-04T03:42:39.622Z,17.80
2023-05-04T03:45:12.251Z,17.70
2023-05-04T03:47:43.797Z,17.60
2023-05-04T03:50:15.129Z,17.60
2023-05-04T03:52:45.951Z,17.60
2023-05-04T03:55:19.552Z,17.60
2023-05-04T03:57:51.215Z,17.60
2023-05-04T04:00:23.143Z,17.50
2023-05-04T04:02:54.723Z,17.40
2023-05-04T04:05:26.678Z,17.30
2023-05-04T04:07:58.322Z,17.30
2023-05-04T04:10:32.463Z,17.30
2023-05-04T04:13:04.561Z,17.30
2023-05-04T04:15:36.351Z,17.30
2023-05-04T04:18:08.261Z,17.40
2023-05-04T04:20:39.904Z,17.30
2023-05-04T04:23:11.735Z,17.20
2023-05-04T04:25:45.092Z,17.10
2023-05-04T04:28:17.260Z,17.00
2023-05-04T04:30:49.734Z,16.90
2023-05-04T04:33:21.507Z,16.80
2023-05-04T04:35:54.157Z,16.80
2023-05-04T04:38:25.873Z,16.70
2023-05-04T04:40:59.987Z,16.70
2023-05-04T04:43:31.951Z,16.70
2023-05-04T04:46:05.029Z,16.80
2023-05-04T04:48:37.968Z,16.70
2023-05-04T04:51:14.974Z,16.80
2023-05-04T04:53:47.108Z,16.80
2023-05-04T04:56:22.656Z,16.80
2023-05-04T04:58:54.414Z,16.70
2023-05-04T05:01:27.363Z,16.70
2023-05-04T05:03:58.897Z,16.70
2023-05-04T05:06:30.569Z,16.70
2023-05-04T05:09:02.863Z,16.70
2023-05-04T05:11:36.767Z,16.80
2023-05-04T05:14:08.548Z,16.70
2023-05-04T05:16:40.547Z,16.60
2023-05-04T05:19:12.164Z,16.60
2023-05-04T05:21:43.373Z,16.60
2023-05-04T05:24:15.163Z,16.50
2023-05-04T05:26:49.102Z,16.40
2023-05-04T05:29:20.580Z,16.30
2023-05-04T05:31:52.774Z,16.20
2023-05-04T05:34:25.024Z,16.10
2023-05-04T05:36:56.557Z,16.00
2023-05-04T05:39:29.260Z,15.90
2023-05-04T05:42:02.987Z,15.80
2023-05-04T05:44:34.606Z,15.70
2023-05-04T05:47:06.384Z,15.50
2023-05-04T05:49:38.236Z,15.40
2023-05-04T05:52:09.925Z,15.20
2023-05-04T05:54:41.746Z,15.20
2023-05-04T05:57:15.733Z,15.20
2023-05-04T05:59:47.738Z,15.20
2023-05-04T06:02:19.781Z,14.90
2023-05-04T06:04:51.570Z,14.90
2023-05-04T06:07:23.771Z,14.70
2023-05-04T06:09:55.314Z,14.50
2023-05-04T06:12:30.496Z,14.30
2023-05-04T06:15:02.435Z,14.10
2023-05-04T06:17:34.638Z,14.10
2023-05-04T06:20:06.612Z,14.00
2023-05-04T06:22:37.785Z,14.00
2023-05-04T06:25:10.137Z,14.00
2023-05-04T06:27:43.481Z,13.90
2023-05-04T06:30:16.061Z,13.90
2023-05-04T06:32:47.987Z,13.50
2023-05-04T06:35:20.156Z,13.50
2023-05-04T06:40:23.386Z,13.30
2023-05-04T06:42:57.114Z,13.30
2023-05-04T06:45:28.953Z,13.30
2023-05-04T06:48:01.108Z,13.30
2023-05-04T06:50:33.411Z,13.40
2023-05-04T06:53:10.133Z,13.40
2023-05-04T06:55:42.684Z,13.50
2023-05-04T06:58:16.458Z,13.50
2023-05-04T07:00:48.154Z,13.40
2023-05-04T07:03:19.811Z,13.50
2023-05-04T07:05:52.102Z,13.40
2023-05-04T07:08:23.652Z,13.40
2023-05-04T07:10:55.061Z,13.20
2023-05-04T07:13:29.034Z,13.20
2023-05-04T07:16:00.078Z,13.30
2023-05-04T07:18:32.108Z,13.30
2023-05-04T07:21:21.867Z,13.30
2023-05-04T07:23:56.765Z,13.40
2023-05-04T07:26:28.983Z,13.50
2023-05-04T07:29:02.529Z,13.60
2023-05-04T07:31:34.465Z,13.50
2023-05-04T07:34:06.438Z,13.60
2023-05-04T07:36:41.950Z,13.60
2023-05-04T07:39:16.077Z,13.60
2023-05-04T07:41:49.578Z,13.40
2023-05-04T07:44:24.922Z,13.30
2023-05-04T07:46:56.284Z,13.40
2023-05-04T07:49:28.219Z,13.40
2023-05-04T07:52:00.806Z,13.50
2023-05-04T07:54:31.945Z,13.60
2023-05-04T07:57:06.151Z,13.60
2023-05-04T07:59:39.956Z,13.60
2023-05-04T08:02:11.965Z,13.60
2023-05-04T08:04:44.162Z,13.60
2023-05-04T08:07:16.684Z,13.60
2023-05-04T08:09:49.024Z,13.60
2023-05-04T08:12:20.554Z,13.40
2023-05-04T08:14:53.716Z,13.40
2023-05-04T08:17:25.715Z,13.30
2023-05-04T08:19:57.740Z,13.30
2023-05-04T08:22:30.085Z,13.30
2023-05-04T08:25:02.026Z,13.30
2023-05-04T08:27:34.150Z,13.30
2023-05-04T08:30:08.620Z,13.20
2023-05-04T08:32:40.188Z,13.20
2023-05-04T08:35:12.698Z,13.20
2023-05-04T08:37:44.412Z,13.20
2023-05-04T08:40:17.049Z,13.30
2023-05-04T08:42:51.477Z,13.40
2023-05-04T08:45:26.522Z,13.40
2023-05-04T08:47:58.831Z,13.50
2023-05-04T08:50:30.735Z,13.50
2023-05-04T08:53:04.212Z,13.60
2023-05-04T08:55:37.393Z,13.60
2023-05-04T08:58:11.332Z,13.60
2023-05-04T09:00:46.364Z,13.60
2023-05-04T09:03:18.158Z,13.60
2023-05-04T09:05:51.823Z,13.60
2023-05-04T09:08:23.948Z,13.60
2023-05-04T09:10:55.478Z,13.50
2023-05-04T09:13:27.292Z,13.30
2023-05-04T09:16:02.167Z,13.30
2023-05-04T09:18:44.328Z,13.40
2023-05-04T09:21:16.123Z,13.40
2023-05-04T09:23:52.290Z,13.40
2023-05-04T09:26:32.153Z,13.50
2023-05-04T09:29:14.566Z,13.50
2023-05-04T09:31:52.339Z,13.50
2023-05-04T09:34:24.388Z,13.60
2023-05-04T09:37:04.774Z,13.60
2023-05-04T09:39:37.449Z,13.60
2023-05-04T09:42:19.783Z,13.60
2023-05-04T09:45:02.997Z,13.70
2023-05-04T09:47:41.492Z,13.70
2023-05-04T09:50:20.810Z,13.60
2023-05-04T09:52:53.686Z,13.60
2023-05-04T09:55:25.259Z,13.60
2023-05-04T09:57:56.460Z,13.60
2023-05-04T10:00:28.360Z,13.50
2023-05-04T10:03:01.840Z,13.50
2023-05-04T10:05:33.290Z,13.50
2023-05-04T10:08:06.324Z,13.50
2023-05-04T10:10:39.024Z,13.30
2023-05-04T10:13:10.580Z,13.20
2023-05-04T10:15:49.480Z,13.10
2023-05-04T10:18:37.448Z,13.00
2023-05-04T10:21:23.437Z,13.00
2023-05-04T10:24:31.265Z,12.90
2023-05-04T10:27:09.466Z,12.90
2023-05-04T10:29:41.758Z,12.80
2023-05-04T10:32:22.621Z,12.80
2023-05-04T10:35:07.793Z,12.90
2023-05-04T10:37:40.440Z,12.80
2023-05-04T10:40:12.617Z,12.80
2023-05-04T10:42:47.906Z,12.60
2023-05-04T10:45:19.912Z,12.60
2023-05-04T10:48:02.528Z,12.60
2023-05-04T10:50:47.393Z,12.70
2023-05-04T10:53:20.404Z,12.60
2023-05-04T10:55:52.635Z,12.50
2023-05-04T10:58:32.313Z,12.50
2023-05-04T11:01:14.582Z,12.50
2023-05-04T11:03:45.919Z,12.50
2023-05-04T11:06:26.538Z,12.40
2023-05-04T11:09:07.468Z,12.30
2023-05-04T11:11:41.522Z,12.40
2023-05-04T11:14:14.951Z,12.30
2023-05-04T11:16:47.130Z,12.30
2023-05-04T11:19:23.134Z,12.30
2023-05-04T11:21:58.065Z,12.20
2023-05-04T11:24:34.457Z,12.00
2023-05-04T11:27:06.043Z,11.80
2023-05-04T11:29:38.770Z,11.70
2023-05-04T11:32:10.419Z,11.60
2023-05-04T11:34:42.101Z,11.50
2023-05-04T11:37:16.185Z,11.40
2023-05-04T11:39:48.547Z,11.30
2023-05-04T11:42:20.678Z,11.20
2023-05-04T11:44:52.287Z,11.10
2023-05-04T11:47:23.972Z,11.10
2023-05-04T11:49:56.049Z,11.10
2023-05-04T11:52:31.675Z,11.10
2023-05-04T11:55:04.136Z,11.10
2023-05-04T11:57:38.142Z,11.20
2023-05-04T12:00:11.646Z,11.20
2023-05-04T12:02:43.258Z,11.20
2023-05-04T12:05:17.998Z,11.20
2023-05-04T12:07:53.368Z,11.20
2023-05-04T12:10:30.356Z,11.20
2023-05-04T12:13:02.078Z,11.20
2023-05-04T12:15:37.466Z,11.20
2023-05-04T12:18:08.975Z,11.20
2023-05-04T12:20:41.153Z,11.20
2023-05-04T12:23:15.680Z,11.20
2023-05-04T12:25:57.451Z,11.20
2023-05-04T12:28:29.514Z,11.20
2023-05-04T12:31:02.376Z,11.20
2023-05-04T12:33:34.771Z,11.10
2023-05-04T12:36:08.202Z,11.10
2023-05-04T12:38:41.201Z,11.10
2023-05-04T12:41:12.894Z,11.10
2023-05-04T12:43:45.071Z,11.10
2023-05-04T12:46:18.593Z,11.10
2023-05-04T12:48:50.414Z,11.10
2023-05-04T12:51:21.932Z,11.10
2023-05-04T12:53:55.612Z,11.10
2023-05-04T12:56:27.683Z,11.10
2023-05-04T12:58:59.247Z,11.20
2023-05-04T13:01:30.969Z,11.20
2023-05-04T13:04:03.236Z,11.20
2023-05-04T13:06:37.449Z,11.20
2023-05-04T13:09:11.278Z,11.10
2023-05-04T13:11:43.319Z,11.10
2023-05-04T13:14:16.027Z,11.10
2023-05-04T13:16:49.922Z,11.20
2023-05-04T13:19:22.482Z,11.10
2023-05-04T13:21:54.182Z,11.10
2023-05-04T13:24:28.452Z,11.10
2023-05-04T13:27:00.713Z,11.10
2023-05-04T13:29:32.670Z,11.10
2023-05-04T13:32:04.980Z,11.10
2023-05-04T13:34:38.022Z,11.30
2023-05-04T13:37:09.458Z,11.20
2023-05-04T13:39:46.322Z,11.20
2023-05-04T13:42:18.368Z,11.30
2023-05-04T13:44:49.755Z,11.40
2023-05-04T13:47:21.725Z,11.30
2023-05-04T13:49:53.757Z,11.30
2023-05-04T13:52:25.837Z,11.30
2023-05-04T13:54:59.412Z,11.40
2023-05-04T13:57:31.083Z,11.40
2023-05-04T14:00:07.726Z,11.30
2023-05-04T14:02:40.681Z,11.40
2023-05-04T14:05:12.604Z,11.50
2023-05-04T14:07:44.851Z,11.60
2023-05-04T14:10:18.702Z,11.60
2023-05-04T14:12:51.695Z,11.80
2023-05-04T14:15:24.552Z,11.80
2023-05-04T14:17:56.503Z,11.80
2023-05-04T14:20:28.688Z,11.80
2023-05-04T14:23:00.960Z,11.80
2023-05-04T14:25:35.075Z,11.80
2023-05-04T14:28:06.650Z,11.90
2023-05-04T14:30:38.653Z,12.00
2023-05-04T14:33:10.005Z,12.10
2023-05-04T14:35:46.020Z,12.10
2023-05-04T14:38:19.046Z,12.10
2023-05-04T14:40:54.512Z,12.20
2023-05-04T14:43:26.828Z,12.20
2023-05-04T14:45:59.236Z,12.10
2023-05-04T14:48:31.951Z,12.00
2023-05-04T14:51:03.234Z,12.00
2023-05-04T14:53:37.936Z,11.90
2023-05-04T14:56:14.073Z,11.90
2023-05-04T14:58:46.215Z,11.90
2023-05-04T15:01:17.857Z,12.00
2023-05-04T15:03:50.269Z,12.10
2023-05-04T15:06:21.504Z,12.10
2023-05-04T15:08:53.213Z,12.10
2023-05-04T15:11:27.066Z,12.00
2023-05-04T15:14:00.015Z,11.90
2023-05-04T15:16:34.379Z,11.80
2023-05-04T15:19:06.262Z,11.60
2023-05-04T15:21:38.054Z,11.50
2023-05-04T15:24:09.881Z,11.50
2023-05-04T15:26:42.996Z,11.60
2023-05-04T15:29:15.077Z,11.60
2023-05-04T15:31:46.837Z,11.50
2023-05-04T15:34:18.800Z,11.40
2023-05-04T15:36:50.396Z,11.40
2023-05-04T15:39:22.174Z,11.30
2023-05-04T15:41:55.728Z,11.30
2023-05-04T15:44:28.758Z,11.40
2023-05-04T15:47:00.098Z,11.60
2023-05-04T15:49:32.426Z,11.50
2023-05-04T15:52:04.607Z,11.60
2023-05-04T15:54:36.379Z,11.50
2023-05-04T15:57:10.973Z,11.50
2023-05-04T15:59:42.033Z,11.50
2023-05-04T16:02:13.596Z,11.50
2023-05-04T16:04:45.603Z,11.70
2023-05-04T16:07:16.914Z,11.70
2023-05-04T16:09:48.444Z,11.80
2023-05-04T16:12:23.048Z,11.90
2023-05-04T16:14:54.077Z,12.20
2023-05-04T16:17:26.174Z,12.60
2023-05-04T16:19:57.419Z,12.90
2023-05-04T16:22:28.493Z,12.90
2023-05-04T16:24:59.819Z,12.90
2023-05-04T16:27:34.459Z,13.10
2023-05-04T16:30:06.575Z,13.10
2023-05-04T16:32:39.265Z,13.30
2023-05-04T16:35:11.400Z,13.40
2023-05-04T16:37:43.494Z,13.60
2023-05-04T16:40:17.821Z,13.30
2023-05-04T16:42:51.596Z,13.40
2023-05-04T16:45:25.709Z,13.40
2023-05-04T16:47:57.929Z,13.20
2023-05-04T16:50:29.015Z,13.30
2023-05-04T16:53:00.624Z,13.30
2023-05-04T16:55:32.704Z,13.50
2023-05-04T16:58:06.444Z,13.80
2023-05-04T17:00:38.681Z,13.70
2023-05-04T17:03:10.666Z,13.60
2023-05-04T17:05:41.849Z,13.50
2023-05-04T17:08:14.552Z,13.20
2023-05-04T17:10:45.541Z,13.40
2023-05-04T17:13:18.439Z,13.40
2023-05-04T17:15:50.113Z,13.60
2023-05-04T17:18:21.835Z,14.00
2023-05-04T17:20:54.184Z,14.10
2023-05-04T17:23:26.101Z,14.10
2023-05-04T17:25:58.498Z,14.10
2023-05-04T17:28:32.100Z,14.40
2023-05-04T17:31:03.493Z,14.50
2023-05-04T17:33:34.613Z,14.60
2023-05-04T17:36:07.021Z,14.60
2023-05-04T17:38:38.967Z,14.70
2023-05-04T17:41:10.716Z,14.70
2023-05-04T17:43:44.262Z,14.90
2023-05-04T17:46:15.714Z,14.70
2023-05-04T17:48:46.877Z,14.60
2023-05-04T17:51:18.069Z,14.50
2023-05-04T17:53:50.084Z,14.70
2023-05-04T17:56:22.650Z,14.80
2023-05-04T17:58:55.575Z,14.90
2023-05-04T18:01:26.697Z,14.60
2023-05-04T18:03:58.440Z,14.60
2023-05-04T18:06:29.952Z,14.80
2023-05-04T18:09:01.175Z,14.80
2023-05-04T18:11:32.852Z,14.60
2023-05-04T18:14:05.651Z,14.80
2023-05-04T18:16:38.719Z,14.90
2023-05-04T18:19:09.596Z,15.00
2023-05-04T18:21:40.834Z,14.70
2023-05-04T18:24:13.210Z,14.60
2023-05-04T18:26:45.122Z,14.60
2023-05-04T18:29:19.385Z,14.50
2023-05-04T18:31:50.872Z,14.70
2023-05-04T18:34:22.449Z,14.90
2023-05-04T18:36:53.174Z,14.80
2023-05-04T18:39:23.912Z,14.90
2023-05-04T18:41:54.817Z,15.00
2023-05-04T18:44:29.607Z,15.30
2023-05-04T18:47:01.978Z,15.30
2023-05-04T18:49:33.220Z,15.50
2023-05-04T18:52:04.918Z,15.70
2023-05-04T18:54:36.836Z,15.70
2023-05-04T18:57:07.931Z,15.80
2023-05-04T18:59:40.818Z,15.90
2023-05-04T19:02:11.897Z,15.70
2023-05-04T19:04:43.831Z,15.60
2023-05-04T19:07:16.231Z,15.60
2023-05-04T19:09:47.761Z,15.30
2023-05-04T19:12:19.363Z,15.40
2023-05-04T19:14:52.210Z,15.40
2023-05-04T19:17:23.723Z,15.40
2023-05-04T19:19:54.684Z,15.50
2023-05-04T19:22:25.769Z,15.50
2023-05-04T19:24:56.896Z,15.70
2023-05-04T19:27:28.013Z,15.70
2023-05-04T19:30:01.118Z,15.60
2023-05-04T19:32:33.503Z,15.20
2023-05-04T19:35:04.328Z,15.30
2023-05-04T19:37:36.384Z,15.60
2023-05-04T19:40:08.015Z,15.70
2023-05-04T19:42:40.695Z,15.80
2023-05-04T19:45:13.953Z,16.00
2023-05-04T19:47:46.444Z,16.30
2023-05-04T19:50:17.651Z,15.60
2023-05-04T19:52:48.428Z,15.40
2023-05-04T19:55:19.944Z,15.60
2023-05-04T19:57:51.417Z,15.30
2023-05-04T20:00:24.566Z,15.10
2023-05-04T20:02:55.952Z,14.70
2023-05-04T20:05:26.869Z,14.90
2023-05-04T20:07:57.992Z,14.60
2023-05-04T20:10:28.883Z,14.70
2023-05-04T20:12:59.722Z,14.60
2023-05-04T20:15:32.699Z,14.70
2023-05-04T20:18:03.909Z,14.40
2023-05-04T20:20:34.869Z,14.50
2023-05-04T20:23:05.672Z,14.30
2023-05-04T20:25:36.487Z,14.20
2023-05-04T20:28:07.573Z,14.00
2023-05-04T20:30:40.219Z,13.70
2023-05-04T20:33:11.697Z,13.70
2023-05-04T20:35:44.903Z,14.00
2023-05-04T20:38:16.516Z,14.20
2023-05-04T20:40:47.996Z,14.10
2023-05-04T20:43:19.533Z,14.20
2023-05-04T20:45:52.522Z,14.10
2023-05-04T20:48:23.910Z,13.90
2023-05-04T20:51:06.674Z,14.10
2023-05-04T20:53:45.006Z,14.20
2023-05-04T20:56:16.089Z,14.10
2023-05-04T20:58:47.555Z,14.10
2023-05-04T21:01:20.075Z,14.10
2023-05-04T21:03:51.271Z,14.10
2023-05-04T21:06:23.109Z,14.10
2023-05-04T21:08:54.693Z,14.20
2023-05-04T21:11:25.821Z,14.30
2023-05-04T21:13:57.647Z,14.30
2023-05-04T21:16:30.886Z,14.40
2023-05-04T21:19:01.693Z,14.10
2023-05-04T21:21:32.802Z,14.30
2023-05-04T21:24:03.620Z,14.40
2023-05-04T21:26:34.714Z,14.30
2023-05-04T21:29:05.477Z,14.10
2023-05-04T21:31:38.597Z,14.40
2023-05-04T21:34:10.254Z,14.40
2023-05-04T21:36:42.436Z,14.40
2023-05-04T21:39:13.249Z,14.40
2023-05-04T21:41:44.252Z,14.50
2023-05-04T21:44:15.713Z,14.40
2023-05-04T21:46:48.331Z,14.40
2023-05-04T21:49:19.323Z,14.40
2023-05-04T21:51:50.646Z,14.40
2023-05-04T21:54:23.581Z,14.30
2023-05-04T21:56:55.140Z,14.40
2023-05-04T21:59:26.327Z,14.30
2023-05-04T22:01:59.594Z,14.30
2023-05-04T22:04:30.910Z,14.30
2023-05-04T22:07:01.745Z,14.10
2023-05-04T22:09:32.870Z,14.20
2023-05-04T22:12:05.127Z,14.20
2023-05-04T22:14:35.912Z,14.30
2023-05-04T22:17:20.427Z,14.20
2023-05-04T22:19:59.572Z,14.00
2023-05-04T22:22:32.798Z,13.80
2023-05-04T22:25:03.966Z,13.70
2023-05-04T22:27:35.510Z,13.60
2023-05-04T22:30:06.908Z,13.60
2023-05-04T22:32:39.912Z,13.80
2023-05-04T22:35:11.934Z,13.70
2023-05-04T22:37:43.140Z,13.60
2023-05-04T22:40:15.154Z,13.60
2023-05-04T22:42:46.489Z,13.50
2023-05-04T22:45:18.904Z,13.30
2023-05-04T22:47:52.318Z,13.20
2023-05-04T22:50:23.136Z,13.20
2023-05-04T22:52:54.963Z,13.10
2023-05-04T22:55:26.588Z,13.00
2023-05-04T22:57:57.843Z,12.70
2023-05-04T23:00:29.641Z,12.60
2023-05-04T23:03:04.664Z,12.70
2023-05-04T23:05:35.743Z,12.80
2023-05-04T23:08:07.364Z,12.80
2023-05-04T23:10:38.315Z,12.90
2023-05-04T23:13:09.157Z,12.80
2023-05-04T23:15:41.022Z,12.70
2023-05-04T23:18:13.991Z,12.80
2023-05-04T23:20:45.199Z,12.60
2023-05-04T23:23:16.026Z,12.70
2023-05-04T23:25:46.794Z,12.70
2023-05-04T23:28:18.425Z,12.80
2023-05-04T23:30:49.251Z,12.60
2023-05-04T23:33:21.597Z,12.70
2023-05-04T23:35:53.106Z,12.60
2023-05-04T23:38:24.449Z,12.60
2023-05-04T23:40:55.700Z,12.50
2023-05-04T23:43:26.879Z,12.20
2023-05-04T23:46:03.298Z,12.10
2023-05-04T23:48:36.761Z,12.00
2023-05-04T23:51:09.709Z,11.90
2023-05-04T23:53:42.360Z,11.80
2023-05-04T23:56:14.588Z,11.90
2023-05-04T23:58:45.850Z,11.90
